sensor_id;sensor_type;location;lat;lon;timestamp;P1;durP1;ratioP1;P2;durP2;ratioP2
6947;SDS011;3513;47.664;9.162;2022-07-29T00:00:12;3.07;;;2.40;;
6947;SDS011;3513;47.664;9.162;2022-07-29T00:02:38;4.30;;;3.10;;
6947;SDS011;3513;47.664;9.162;2022-07-29T00:05:04;2.80;;;2.40;;
6947;SDS011;3513;47.664;9.162;2022-07-29T00:07:31;4.03;;;2.30;;
6947;SDS011;3513;47.664;9.162;2022-07-29T00:09:56;4.60;;;2.33;;
6947;SDS011;3513;47.664;9.162;2022-07-29T00:12:23;3.83;;;2.10;;
6947;SDS011;3513;47.664;9.162;2022-07-29T00:14:49;2.20;;;2.00;;
6947;SDS011;3513;47.664;9.162;2022-07-29T00:17:15;2.80;;;2.40;;
6947;SDS011;3513;47.664;9.162;2022-07-29T00:19:41;3.37;;;2.23;;
6947;SDS011;3513;47.664;9.162;2022-07-29T00:22:07;2.43;;;1.87;;
6947;SDS011;3513;47.664;9.162;2022-07-29T00:24:32;3.53;;;2.60;;
6947;SDS011;3513;47.664;9.162;2022-07-29T00:26:58;2.40;;;2.20;;
6947;SDS011;3513;47.664;9.162;2022-07-29T00:29:24;2.70;;;2.33;;
6947;SDS011;3513;47.664;9.162;2022-07-29T00:31:49;3.10;;;2.80;;
6947;SDS011;3513;47.664;9.162;2022-07-29T00:34:15;2.73;;;2.53;;
6947;SDS011;3513;47.664;9.162;2022-07-29T00:36:59;3.37;;;3.07;;
6947;SDS011;3513;47.664;9.162;2022-07-29T00:39:25;5.47;;;2.37;;
6947;SDS011;3513;47.664;9.162;2022-07-29T00:41:51;2.97;;;2.53;;
6947;SDS011;3513;47.664;9.162;2022-07-29T00:44:16;2.77;;;2.57;;
6947;SDS011;3513;47.664;9.162;2022-07-29T00:46:42;5.07;;;2.33;;
6947;SDS011;3513;47.664;9.162;2022-07-29T00:49:07;4.63;;;2.77;;
6947;SDS011;3513;47.664;9.162;2022-07-29T00:51:36;2.77;;;2.57;;
6947;SDS011;3513;47.664;9.162;2022-07-29T00:54:03;3.90;;;2.97;;
6947;SDS011;3513;47.664;9.162;2022-07-29T00:56:30;3.87;;;2.63;;
6947;SDS011;3513;47.664;9.162;2022-07-29T00:58:57;8.53;;;3.10;;
6947;SDS011;3513;47.664;9.162;2022-07-29T01:01:23;8.33;;;3.03;;
6947;SDS011;3513;47.664;9.162;2022-07-29T01:03:48;6.00;;;3.40;;
6947;SDS011;3513;47.664;9.162;2022-07-29T01:06:15;8.70;;;3.07;;
6947;SDS011;3513;47.664;9.162;2022-07-29T01:08:41;3.50;;;2.93;;
6947;SDS011;3513;47.664;9.162;2022-07-29T01:11:08;7.57;;;4.00;;
6947;SDS011;3513;47.664;9.162;2022-07-29T01:13:34;4.37;;;3.37;;
6947;SDS011;3513;47.664;9.162;2022-07-29T01:16:07;2.77;;;2.57;;
6947;SDS011;3513;47.664;9.162;2022-07-29T01:18:39;7.77;;;3.33;;
6947;SDS011;3513;47.664;9.162;2022-07-29T01:21:16;4.30;;;3.53;;
6947;SDS011;3513;47.664;9.162;2022-07-29T01:29:55;5.80;;;3.20;;
6947;SDS011;3513;47.664;9.162;2022-07-29T01:32:27;4.03;;;3.30;;
6947;SDS011;3513;47.664;9.162;2022-07-29T01:35:15;6.57;;;4.43;;
6947;SDS011;3513;47.664;9.162;2022-07-29T01:37:52;3.40;;;2.90;;
6947;SDS011;3513;47.664;9.162;2022-07-29T01:41:13;13.17;;;5.10;;
6947;SDS011;3513;47.664;9.162;2022-07-29T01:43:27;6.53;;;3.70;;
6947;SDS011;3513;47.664;9.162;2022-07-29T01:46:07;4.67;;;4.00;;
6947;SDS011;3513;47.664;9.162;2022-07-29T01:48:37;3.50;;;3.20;;
6947;SDS011;3513;47.664;9.162;2022-07-29T01:51:18;8.83;;;3.07;;
6947;SDS011;3513;47.664;9.162;2022-07-29T01:53:54;4.17;;;3.10;;
6947;SDS011;3513;47.664;9.162;2022-07-29T01:56:30;6.60;;;3.67;;
6947;SDS011;3513;47.664;9.162;2022-07-29T01:58:59;6.13;;;4.67;;
6947;SDS011;3513;47.664;9.162;2022-07-29T02:01:27;7.30;;;3.67;;
6947;SDS011;3513;47.664;9.162;2022-07-29T02:03:54;4.70;;;4.13;;
6947;SDS011;3513;47.664;9.162;2022-07-29T02:06:22;5.70;;;3.77;;
6947;SDS011;3513;47.664;9.162;2022-07-29T02:08:49;5.10;;;3.60;;
6947;SDS011;3513;47.664;9.162;2022-07-29T02:11:17;4.83;;;3.50;;
6947;SDS011;3513;47.664;9.162;2022-07-29T02:13:43;3.90;;;3.60;;
6947;SDS011;3513;47.664;9.162;2022-07-29T02:16:10;10.13;;;3.77;;
6947;SDS011;3513;47.664;9.162;2022-07-29T02:18:37;5.43;;;3.73;;
6947;SDS011;3513;47.664;9.162;2022-07-29T02:21:05;6.70;;;3.83;;
6947;SDS011;3513;47.664;9.162;2022-07-29T02:23:32;4.20;;;3.77;;
6947;SDS011;3513;47.664;9.162;2022-07-29T02:26:00;3.60;;;3.30;;
6947;SDS011;3513;47.664;9.162;2022-07-29T02:28:28;5.60;;;3.90;;
6947;SDS011;3513;47.664;9.162;2022-07-29T02:30:56;3.40;;;3.10;;
6947;SDS011;3513;47.664;9.162;2022-07-29T02:33:24;5.17;;;3.27;;
6947;SDS011;3513;47.664;9.162;2022-07-29T02:35:51;8.10;;;4.70;;
6947;SDS011;3513;47.664;9.162;2022-07-29T02:38:18;6.77;;;4.57;;
6947;SDS011;3513;47.664;9.162;2022-07-29T02:41:05;4.50;;;3.50;;
6947;SDS011;3513;47.664;9.162;2022-07-29T02:43:36;4.37;;;3.23;;
6947;SDS011;3513;47.664;9.162;2022-07-29T02:46:04;13.80;;;4.27;;
6947;SDS011;3513;47.664;9.162;2022-07-29T02:48:37;7.63;;;3.93;;
6947;SDS011;3513;47.664;9.162;2022-07-29T02:53:58;5.10;;;3.50;;
6947;SDS011;3513;47.664;9.162;2022-07-29T02:56:31;4.93;;;4.43;;
6947;SDS011;3513;47.664;9.162;2022-07-29T02:59:01;5.73;;;3.97;;
6947;SDS011;3513;47.664;9.162;2022-07-29T03:01:30;5.83;;;3.40;;
6947;SDS011;3513;47.664;9.162;2022-07-29T03:03:59;17.67;;;3.83;;
6947;SDS011;3513;47.664;9.162;2022-07-29T03:06:26;6.47;;;4.40;;
6947;SDS011;3513;47.664;9.162;2022-07-29T03:08:53;7.13;;;4.20;;
6947;SDS011;3513;47.664;9.162;2022-07-29T03:11:20;4.53;;;4.03;;
6947;SDS011;3513;47.664;9.162;2022-07-29T03:13:46;6.00;;;3.80;;
6947;SDS011;3513;47.664;9.162;2022-07-29T03:16:13;4.50;;;3.80;;
6947;SDS011;3513;47.664;9.162;2022-07-29T03:18:40;10.70;;;3.73;;
6947;SDS011;3513;47.664;9.162;2022-07-29T03:21:06;4.23;;;3.67;;
6947;SDS011;3513;47.664;9.162;2022-07-29T03:23:33;4.40;;;3.93;;
6947;SDS011;3513;47.664;9.162;2022-07-29T03:25:59;6.30;;;4.27;;
6947;SDS011;3513;47.664;9.162;2022-07-29T03:28:24;6.20;;;3.50;;
6947;SDS011;3513;47.664;9.162;2022-07-29T03:30:52;7.13;;;4.20;;
6947;SDS011;3513;47.664;9.162;2022-07-29T03:33:18;6.17;;;4.00;;
6947;SDS011;3513;47.664;9.162;2022-07-29T03:35:44;5.90;;;4.33;;
6947;SDS011;3513;47.664;9.162;2022-07-29T03:38:10;4.17;;;3.77;;
6947;SDS011;3513;47.664;9.162;2022-07-29T03:40:46;5.80;;;3.70;;
6947;SDS011;3513;47.664;9.162;2022-07-29T03:43:17;12.73;;;3.83;;
6947;SDS011;3513;47.664;9.162;2022-07-29T03:45:44;4.17;;;3.77;;
6947;SDS011;3513;47.664;9.162;2022-07-29T03:48:15;4.03;;;3.53;;
6947;SDS011;3513;47.664;9.162;2022-07-29T03:50:44;4.03;;;3.70;;
6947;SDS011;3513;47.664;9.162;2022-07-29T03:53:11;5.07;;;4.30;;
6947;SDS011;3513;47.664;9.162;2022-07-29T03:55:41;4.83;;;4.30;;
6947;SDS011;3513;47.664;9.162;2022-07-29T03:58:10;4.60;;;3.90;;
6947;SDS011;3513;47.664;9.162;2022-07-29T04:00:38;5.23;;;4.07;;
6947;SDS011;3513;47.664;9.162;2022-07-29T04:03:04;7.30;;;3.90;;
6947;SDS011;3513;47.664;9.162;2022-07-29T04:05:30;5.83;;;3.47;;
6947;SDS011;3513;47.664;9.162;2022-07-29T04:07:56;10.70;;;3.73;;
6947;SDS011;3513;47.664;9.162;2022-07-29T04:10:21;4.50;;;3.50;;
6947;SDS011;3513;47.664;9.162;2022-07-29T04:12:50;7.30;;;3.43;;
6947;SDS011;3513;47.664;9.162;2022-07-29T04:15:16;5.47;;;4.13;;
6947;SDS011;3513;47.664;9.162;2022-07-29T04:17:42;5.27;;;4.20;;
6947;SDS011;3513;47.664;9.162;2022-07-29T04:20:08;12.80;;;4.60;;
6947;SDS011;3513;47.664;9.162;2022-07-29T04:22:34;4.30;;;3.70;;
6947;SDS011;3513;47.664;9.162;2022-07-29T04:24:59;7.90;;;3.97;;
6947;SDS011;3513;47.664;9.162;2022-07-29T04:27:25;3.60;;;3.30;;
6947;SDS011;3513;47.664;9.162;2022-07-29T04:29:51;10.73;;;3.50;;
6947;SDS011;3513;47.664;9.162;2022-07-29T04:32:16;7.20;;;3.43;;
6947;SDS011;3513;47.664;9.162;2022-07-29T04:34:42;9.53;;;3.90;;
6947;SDS011;3513;47.664;9.162;2022-07-29T04:37:08;4.70;;;3.93;;
6947;SDS011;3513;47.664;9.162;2022-07-29T04:39:33;7.63;;;3.93;;
6947;SDS011;3513;47.664;9.162;2022-07-29T04:41:59;13.93;;;4.33;;
6947;SDS011;3513;47.664;9.162;2022-07-29T04:44:25;4.93;;;4.37;;
6947;SDS011;3513;47.664;9.162;2022-07-29T04:46:51;9.00;;;4.20;;
6947;SDS011;3513;47.664;9.162;2022-07-29T04:49:17;7.53;;;4.37;;
6947;SDS011;3513;47.664;9.162;2022-07-29T04:51:42;4.47;;;4.07;;
6947;SDS011;3513;47.664;9.162;2022-07-29T04:54:08;6.37;;;4.07;;
6947;SDS011;3513;47.664;9.162;2022-07-29T04:56:33;5.47;;;4.20;;
6947;SDS011;3513;47.664;9.162;2022-07-29T04:58:59;7.10;;;4.93;;
6947;SDS011;3513;47.664;9.162;2022-07-29T05:01:25;4.33;;;3.93;;
6947;SDS011;3513;47.664;9.162;2022-07-29T05:03:50;4.70;;;4.30;;
6947;SDS011;3513;47.664;9.162;2022-07-29T05:06:16;4.17;;;3.87;;
6947;SDS011;3513;47.664;9.162;2022-07-29T05:08:42;10.13;;;3.73;;
6947;SDS011;3513;47.664;9.162;2022-07-29T05:11:07;5.93;;;4.40;;
6947;SDS011;3513;47.664;9.162;2022-07-29T05:13:33;4.70;;;4.17;;
6947;SDS011;3513;47.664;9.162;2022-07-29T05:16:00;5.50;;;3.77;;
6947;SDS011;3513;47.664;9.162;2022-07-29T05:18:26;8.50;;;3.70;;
6947;SDS011;3513;47.664;9.162;2022-07-29T05:20:52;10.73;;;4.07;;
6947;SDS011;3513;47.664;9.162;2022-07-29T05:23:17;17.23;;;4.17;;
6947;SDS011;3513;47.664;9.162;2022-07-29T05:25:43;5.80;;;4.10;;
6947;SDS011;3513;47.664;9.162;2022-07-29T05:28:09;5.63;;;4.87;;
6947;SDS011;3513;47.664;9.162;2022-07-29T05:30:35;4.60;;;3.90;;
6947;SDS011;3513;47.664;9.162;2022-07-29T05:33:00;5.03;;;4.13;;
6947;SDS011;3513;47.664;9.162;2022-07-29T05:35:26;6.77;;;4.30;;
6947;SDS011;3513;47.664;9.162;2022-07-29T05:37:52;5.53;;;4.17;;
6947;SDS011;3513;47.664;9.162;2022-07-29T05:40:17;6.83;;;4.40;;
6947;SDS011;3513;47.664;9.162;2022-07-29T05:42:43;4.37;;;3.97;;
6947;SDS011;3513;47.664;9.162;2022-07-29T05:45:09;7.80;;;3.53;;
6947;SDS011;3513;47.664;9.162;2022-07-29T05:47:35;4.90;;;4.17;;
6947;SDS011;3513;47.664;9.162;2022-07-29T05:50:00;6.00;;;4.63;;
6947;SDS011;3513;47.664;9.162;2022-07-29T05:52:26;6.10;;;4.07;;
6947;SDS011;3513;47.664;9.162;2022-07-29T05:54:52;5.97;;;3.53;;
6947;SDS011;3513;47.664;9.162;2022-07-29T05:57:18;7.17;;;4.70;;
6947;SDS011;3513;47.664;9.162;2022-07-29T05:59:46;5.13;;;4.57;;
6947;SDS011;3513;47.664;9.162;2022-07-29T06:02:12;9.80;;;6.13;;
6947;SDS011;3513;47.664;9.162;2022-07-29T06:04:37;10.00;;;6.50;;
6947;SDS011;3513;47.664;9.162;2022-07-29T06:07:03;4.90;;;4.30;;
6947;SDS011;3513;47.664;9.162;2022-07-29T06:09:29;5.90;;;4.33;;
6947;SDS011;3513;47.664;9.162;2022-07-29T06:11:55;11.57;;;4.70;;
6947;SDS011;3513;47.664;9.162;2022-07-29T06:14:22;10.47;;;4.40;;
6947;SDS011;3513;47.664;9.162;2022-07-29T06:16:47;7.57;;;5.00;;
6947;SDS011;3513;47.664;9.162;2022-07-29T06:19:13;9.97;;;4.63;;
6947;SDS011;3513;47.664;9.162;2022-07-29T06:21:42;4.40;;;4.03;;
6947;SDS011;3513;47.664;9.162;2022-07-29T06:24:08;5.30;;;4.40;;
6947;SDS011;3513;47.664;9.162;2022-07-29T06:26:35;8.87;;;5.07;;
6947;SDS011;3513;47.664;9.162;2022-07-29T06:29:01;12.00;;;4.93;;
6947;SDS011;3513;47.664;9.162;2022-07-29T06:31:26;5.47;;;4.30;;
6947;SDS011;3513;47.664;9.162;2022-07-29T06:33:52;6.63;;;4.90;;
6947;SDS011;3513;47.664;9.162;2022-07-29T06:36:18;6.43;;;5.27;;
6947;SDS011;3513;47.664;9.162;2022-07-29T06:38:43;12.07;;;5.17;;
6947;SDS011;3513;47.664;9.162;2022-07-29T06:41:09;5.37;;;4.87;;
6947;SDS011;3513;47.664;9.162;2022-07-29T06:43:40;9.23;;;5.70;;
6947;SDS011;3513;47.664;9.162;2022-07-29T06:46:08;6.30;;;4.60;;
6947;SDS011;3513;47.664;9.162;2022-07-29T06:48:39;5.23;;;4.83;;
6947;SDS011;3513;47.664;9.162;2022-07-29T06:51:07;8.33;;;6.27;;
6947;SDS011;3513;47.664;9.162;2022-07-29T06:53:33;6.97;;;5.07;;
6947;SDS011;3513;47.664;9.162;2022-07-29T06:56:00;16.50;;;6.37;;
6947;SDS011;3513;47.664;9.162;2022-07-29T06:58:27;7.87;;;4.77;;
6947;SDS011;3513;47.664;9.162;2022-07-29T07:00:54;10.87;;;5.63;;
6947;SDS011;3513;47.664;9.162;2022-07-29T07:03:20;6.90;;;5.23;;
6947;SDS011;3513;47.664;9.162;2022-07-29T07:05:46;9.97;;;5.33;;
6947;SDS011;3513;47.664;9.162;2022-07-29T07:08:12;6.80;;;4.97;;
6947;SDS011;3513;47.664;9.162;2022-07-29T07:10:38;7.57;;;4.63;;
6947;SDS011;3513;47.664;9.162;2022-07-29T07:13:05;9.63;;;5.20;;
6947;SDS011;3513;47.664;9.162;2022-07-29T07:15:31;5.67;;;5.07;;
6947;SDS011;3513;47.664;9.162;2022-07-29T07:17:57;6.87;;;5.10;;
6947;SDS011;3513;47.664;9.162;2022-07-29T07:20:23;11.77;;;5.97;;
6947;SDS011;3513;47.664;9.162;2022-07-29T07:22:49;5.70;;;4.50;;
6947;SDS011;3513;47.664;9.162;2022-07-29T07:25:14;5.47;;;4.97;;
6947;SDS011;3513;47.664;9.162;2022-07-29T07:27:42;7.93;;;5.23;;
6947;SDS011;3513;47.664;9.162;2022-07-29T07:30:08;5.00;;;4.50;;
6947;SDS011;3513;47.664;9.162;2022-07-29T07:32:35;5.73;;;5.00;;
6947;SDS011;3513;47.664;9.162;2022-07-29T07:35:01;9.17;;;5.80;;
6947;SDS011;3513;47.664;9.162;2022-07-29T07:37:28;7.13;;;6.07;;
6947;SDS011;3513;47.664;9.162;2022-07-29T07:39:53;7.70;;;6.17;;
6947;SDS011;3513;47.664;9.162;2022-07-29T07:42:19;10.20;;;6.07;;
6947;SDS011;3513;47.664;9.162;2022-07-29T07:44:45;8.17;;;6.57;;
6947;SDS011;3513;47.664;9.162;2022-07-29T07:47:14;6.67;;;5.33;;
6947;SDS011;3513;47.664;9.162;2022-07-29T07:49:46;5.03;;;4.53;;
6947;SDS011;3513;47.664;9.162;2022-07-29T07:52:12;5.20;;;4.63;;
6947;SDS011;3513;47.664;9.162;2022-07-29T07:54:41;6.03;;;5.43;;
6947;SDS011;3513;47.664;9.162;2022-07-29T07:57:08;12.53;;;4.90;;
6947;SDS011;3513;47.664;9.162;2022-07-29T07:59:33;4.93;;;4.30;;
6947;SDS011;3513;47.664;9.162;2022-07-29T08:01:59;7.17;;;5.07;;
6947;SDS011;3513;47.664;9.162;2022-07-29T08:04:25;4.80;;;4.40;;
6947;SDS011;3513;47.664;9.162;2022-07-29T08:06:51;4.83;;;4.07;;
6947;SDS011;3513;47.664;9.162;2022-07-29T08:09:21;5.20;;;4.70;;
6947;SDS011;3513;47.664;9.162;2022-07-29T08:11:48;13.50;;;3.77;;
6947;SDS011;3513;47.664;9.162;2022-07-29T08:14:13;3.80;;;2.87;;
6947;SDS011;3513;47.664;9.162;2022-07-29T08:16:39;3.80;;;3.37;;
6947;SDS011;3513;47.664;9.162;2022-07-29T08:19:06;10.83;;;3.07;;
6947;SDS011;3513;47.664;9.162;2022-07-29T08:21:31;4.13;;;3.83;;
6947;SDS011;3513;47.664;9.162;2022-07-29T08:23:57;3.80;;;3.50;;
6947;SDS011;3513;47.664;9.162;2022-07-29T08:26:55;3.03;;;2.70;;
6947;SDS011;3513;47.664;9.162;2022-07-29T08:29:21;2.93;;;2.73;;
6947;SDS011;3513;47.664;9.162;2022-07-29T08:31:46;4.73;;;2.93;;
6947;SDS011;3513;47.664;9.162;2022-07-29T08:34:12;6.37;;;3.43;;
6947;SDS011;3513;47.664;9.162;2022-07-29T08:36:38;8.23;;;3.27;;
6947;SDS011;3513;47.664;9.162;2022-07-29T08:39:04;3.63;;;3.30;;
6947;SDS011;3513;47.664;9.162;2022-07-29T08:41:30;11.33;;;4.10;;
6947;SDS011;3513;47.664;9.162;2022-07-29T08:43:56;7.70;;;4.20;;
6947;SDS011;3513;47.664;9.162;2022-07-29T08:46:22;3.67;;;3.37;;
6947;SDS011;3513;47.664;9.162;2022-07-29T08:48:48;5.73;;;3.27;;
6947;SDS011;3513;47.664;9.162;2022-07-29T08:51:15;4.73;;;3.63;;
6947;SDS011;3513;47.664;9.162;2022-07-29T08:53:44;3.70;;;3.40;;
6947;SDS011;3513;47.664;9.162;2022-07-29T08:56:16;8.83;;;4.50;;
6947;SDS011;3513;47.664;9.162;2022-07-29T08:58:43;5.80;;;4.37;;
6947;SDS011;3513;47.664;9.162;2022-07-29T09:01:10;11.17;;;3.83;;
6947;SDS011;3513;47.664;9.162;2022-07-29T09:03:38;5.37;;;3.00;;
6947;SDS011;3513;47.664;9.162;2022-07-29T09:06:05;3.70;;;3.07;;
6947;SDS011;3513;47.664;9.162;2022-07-29T09:08:32;4.70;;;3.20;;
6947;SDS011;3513;47.664;9.162;2022-07-29T09:10:58;5.20;;;3.10;;
6947;SDS011;3513;47.664;9.162;2022-07-29T09:13:26;9.03;;;3.10;;
6947;SDS011;3513;47.664;9.162;2022-07-29T09:15:52;3.90;;;3.57;;
6947;SDS011;3513;47.664;9.162;2022-07-29T09:18:32;4.47;;;3.30;;
6947;SDS011;3513;47.664;9.162;2022-07-29T09:21:03;4.73;;;2.93;;
6947;SDS011;3513;47.664;9.162;2022-07-29T09:26:38;3.87;;;3.40;;
6947;SDS011;3513;47.664;9.162;2022-07-29T09:29:09;7.70;;;3.60;;
6947;SDS011;3513;47.664;9.162;2022-07-29T09:31:39;8.70;;;4.20;;
6947;SDS011;3513;47.664;9.162;2022-07-29T09:34:06;11.80;;;4.60;;
6947;SDS011;3513;47.664;9.162;2022-07-29T09:36:40;9.50;;;4.20;;
6947;SDS011;3513;47.664;9.162;2022-07-29T09:39:10;6.03;;;4.00;;
6947;SDS011;3513;47.664;9.162;2022-07-29T09:41:46;4.20;;;3.60;;
6947;SDS011;3513;47.664;9.162;2022-07-29T09:44:17;4.43;;;3.57;;
6947;SDS011;3513;47.664;9.162;2022-07-29T09:46:56;9.10;;;4.10;;
6947;SDS011;3513;47.664;9.162;2022-07-29T09:49:36;5.83;;;3.77;;
6947;SDS011;3513;47.664;9.162;2022-07-29T09:52:23;7.20;;;4.50;;
6947;SDS011;3513;47.664;9.162;2022-07-29T09:54:50;5.67;;;4.50;;
6947;SDS011;3513;47.664;9.162;2022-07-29T09:57:26;7.80;;;5.20;;
6947;SDS011;3513;47.664;9.162;2022-07-29T10:00:00;8.03;;;4.80;;
6947;SDS011;3513;47.664;9.162;2022-07-29T10:02:30;9.20;;;4.87;;
6947;SDS011;3513;47.664;9.162;2022-07-29T10:04:57;9.43;;;5.07;;
6947;SDS011;3513;47.664;9.162;2022-07-29T10:07:26;6.80;;;5.03;;
6947;SDS011;3513;47.664;9.162;2022-07-29T10:10:23;7.23;;;4.13;;
6947;SDS011;3513;47.664;9.162;2022-07-29T10:12:51;3.70;;;3.40;;
6947;SDS011;3513;47.664;9.162;2022-07-29T10:15:23;3.73;;;3.40;;
6947;SDS011;3513;47.664;9.162;2022-07-29T10:17:51;5.60;;;3.70;;
6947;SDS011;3513;47.664;9.162;2022-07-29T10:20:18;7.70;;;3.30;;
6947;SDS011;3513;47.664;9.162;2022-07-29T10:22:46;5.43;;;3.37;;
6947;SDS011;3513;47.664;9.162;2022-07-29T10:25:13;4.43;;;2.67;;
6947;SDS011;3513;47.664;9.162;2022-07-29T10:27:43;3.80;;;2.73;;
6947;SDS011;3513;47.664;9.162;2022-07-29T10:30:14;5.17;;;2.53;;
6947;SDS011;3513;47.664;9.162;2022-07-29T10:35:27;3.20;;;2.90;;
6947;SDS011;3513;47.664;9.162;2022-07-29T10:43:53;3.33;;;3.03;;
6947;SDS011;3513;47.664;9.162;2022-07-29T10:46:27;3.20;;;2.90;;
6947;SDS011;3513;47.664;9.162;2022-07-29T10:59:41;3.80;;;3.50;;
6947;SDS011;3513;47.664;9.162;2022-07-29T11:07:32;7.53;;;2.80;;
6947;SDS011;3513;47.664;9.162;2022-07-29T11:15:12;3.80;;;3.13;;
6947;SDS011;3513;47.664;9.162;2022-07-29T11:39:35;6.10;;;3.60;;
6947;SDS011;3513;47.664;9.162;2022-07-29T11:47:22;6.90;;;3.80;;
6947;SDS011;3513;47.664;9.162;2022-07-29T11:49:49;11.63;;;4.07;;
6947;SDS011;3513;47.664;9.162;2022-07-29T11:52:16;4.50;;;3.20;;
6947;SDS011;3513;47.664;9.162;2022-07-29T11:54:42;5.20;;;4.70;;
6947;SDS011;3513;47.664;9.162;2022-07-29T11:57:09;8.80;;;3.70;;
6947;SDS011;3513;47.664;9.162;2022-07-29T11:59:41;5.60;;;3.77;;
6947;SDS011;3513;47.664;9.162;2022-07-29T12:02:08;5.83;;;4.10;;
6947;SDS011;3513;47.664;9.162;2022-07-29T12:07:30;5.07;;;3.70;;
6947;SDS011;3513;47.664;9.162;2022-07-29T12:09:57;4.70;;;2.70;;
6947;SDS011;3513;47.664;9.162;2022-07-29T12:12:23;6.27;;;3.30;;
6947;SDS011;3513;47.664;9.162;2022-07-29T12:14:49;3.50;;;3.20;;
6947;SDS011;3513;47.664;9.162;2022-07-29T12:17:28;10.60;;;4.33;;
6947;SDS011;3513;47.664;9.162;2022-07-29T12:20:02;8.50;;;5.40;;
6947;SDS011;3513;47.664;9.162;2022-07-29T12:24:59;13.47;;;6.47;;
6947;SDS011;3513;47.664;9.162;2022-07-29T12:27:27;8.00;;;4.90;;
6947;SDS011;3513;47.664;9.162;2022-07-29T12:30:01;4.50;;;4.10;;
6947;SDS011;3513;47.664;9.162;2022-07-29T12:32:31;4.70;;;3.77;;
6947;SDS011;3513;47.664;9.162;2022-07-29T12:35:09;5.83;;;4.47;;
6947;SDS011;3513;47.664;9.162;2022-07-29T12:37:38;4.00;;;3.70;;
6947;SDS011;3513;47.664;9.162;2022-07-29T12:40:06;9.87;;;4.60;;
6947;SDS011;3513;47.664;9.162;2022-07-29T12:42:33;7.10;;;4.37;;
6947;SDS011;3513;47.664;9.162;2022-07-29T12:44:59;10.00;;;4.50;;
6947;SDS011;3513;47.664;9.162;2022-07-29T12:47:25;9.30;;;4.27;;
6947;SDS011;3513;47.664;9.162;2022-07-29T12:49:52;6.10;;;4.23;;
6947;SDS011;3513;47.664;9.162;2022-07-29T12:52:36;9.50;;;5.00;;
6947;SDS011;3513;47.664;9.162;2022-07-29T12:55:01;7.87;;;5.27;;
6947;SDS011;3513;47.664;9.162;2022-07-29T12:57:27;15.73;;;5.53;;
6947;SDS011;3513;47.664;9.162;2022-07-29T13:00:04;12.83;;;6.10;;
6947;SDS011;3513;47.664;9.162;2022-07-29T13:02:36;9.90;;;6.40;;
6947;SDS011;3513;47.664;9.162;2022-07-29T13:05:03;10.80;;;6.20;;
6947;SDS011;3513;47.664;9.162;2022-07-29T13:07:30;4.60;;;4.20;;
6947;SDS011;3513;47.664;9.162;2022-07-29T13:15:34;7.73;;;5.23;;
6947;SDS011;3513;47.664;9.162;2022-07-29T13:18:01;7.13;;;4.97;;
6947;SDS011;3513;47.664;9.162;2022-07-29T13:20:28;6.13;;;5.63;;
6947;SDS011;3513;47.664;9.162;2022-07-29T13:22:55;10.80;;;6.00;;
6947;SDS011;3513;47.664;9.162;2022-07-29T13:25:25;6.33;;;5.20;;
6947;SDS011;3513;47.664;9.162;2022-07-29T13:27:53;7.90;;;5.60;;
6947;SDS011;3513;47.664;9.162;2022-07-29T13:30:19;10.40;;;5.03;;
6947;SDS011;3513;47.664;9.162;2022-07-29T13:32:46;8.57;;;5.73;;
6947;SDS011;3513;47.664;9.162;2022-07-29T13:35:12;10.70;;;4.80;;
6947;SDS011;3513;47.664;9.162;2022-07-29T13:37:38;7.60;;;4.77;;
6947;SDS011;3513;47.664;9.162;2022-07-29T13:40:05;6.90;;;4.67;;
6947;SDS011;3513;47.664;9.162;2022-07-29T13:42:32;4.83;;;4.20;;
6947;SDS011;3513;47.664;9.162;2022-07-29T13:44:58;5.87;;;4.47;;
6947;SDS011;3513;47.664;9.162;2022-07-29T13:47:25;4.60;;;4.13;;
6947;SDS011;3513;47.664;9.162;2022-07-29T13:49:51;7.23;;;4.00;;
6947;SDS011;3513;47.664;9.162;2022-07-29T13:52:18;11.27;;;3.63;;
6947;SDS011;3513;47.664;9.162;2022-07-29T13:54:44;6.77;;;3.33;;
6947;SDS011;3513;47.664;9.162;2022-07-29T13:57:10;8.90;;;3.80;;
6947;SDS011;3513;47.664;9.162;2022-07-29T13:59:36;13.50;;;3.47;;
6947;SDS011;3513;47.664;9.162;2022-07-29T14:02:02;4.37;;;3.47;;
6947;SDS011;3513;47.664;9.162;2022-07-29T14:04:28;12.20;;;4.10;;
6947;SDS011;3513;47.664;9.162;2022-07-29T14:06:54;4.80;;;3.70;;
6947;SDS011;3513;47.664;9.162;2022-07-29T14:09:19;7.47;;;3.60;;
6947;SDS011;3513;47.664;9.162;2022-07-29T14:11:45;7.60;;;3.50;;
6947;SDS011;3513;47.664;9.162;2022-07-29T14:14:14;4.33;;;3.30;;
6947;SDS011;3513;47.664;9.162;2022-07-29T14:16:39;5.97;;;3.47;;
6947;SDS011;3513;47.664;9.162;2022-07-29T14:19:05;6.43;;;3.60;;
6947;SDS011;3513;47.664;9.162;2022-07-29T14:21:31;4.13;;;3.73;;
6947;SDS011;3513;47.664;9.162;2022-07-29T14:23:57;8.20;;;4.80;;
6947;SDS011;3513;47.664;9.162;2022-07-29T14:26:23;6.67;;;3.70;;
6947;SDS011;3513;47.664;9.162;2022-07-29T14:28:49;5.70;;;4.40;;
6947;SDS011;3513;47.664;9.162;2022-07-29T14:31:15;14.93;;;5.00;;
6947;SDS011;3513;47.664;9.162;2022-07-29T14:33:40;9.40;;;4.70;;
6947;SDS011;3513;47.664;9.162;2022-07-29T14:36:06;18.20;;;4.80;;
6947;SDS011;3513;47.664;9.162;2022-07-29T14:38:32;6.50;;;4.43;;
6947;SDS011;3513;47.664;9.162;2022-07-29T14:40:58;10.00;;;4.50;;
6947;SDS011;3513;47.664;9.162;2022-07-29T14:43:24;8.80;;;3.80;;
6947;SDS011;3513;47.664;9.162;2022-07-29T14:45:49;7.70;;;4.47;;
6947;SDS011;3513;47.664;9.162;2022-07-29T14:48:15;5.90;;;4.37;;
6947;SDS011;3513;47.664;9.162;2022-07-29T14:50:40;7.93;;;5.10;;
6947;SDS011;3513;47.664;9.162;2022-07-29T14:53:06;12.30;;;5.00;;
6947;SDS011;3513;47.664;9.162;2022-07-29T14:55:32;9.10;;;6.00;;
6947;SDS011;3513;47.664;9.162;2022-07-29T14:57:58;8.70;;;5.17;;
6947;SDS011;3513;47.664;9.162;2022-07-29T15:00:24;9.40;;;5.40;;
6947;SDS011;3513;47.664;9.162;2022-07-29T15:02:50;9.67;;;5.47;;
6947;SDS011;3513;47.664;9.162;2022-07-29T15:05:16;17.53;;;5.97;;
6947;SDS011;3513;47.664;9.162;2022-07-29T15:07:42;19.83;;;5.43;;
6947;SDS011;3513;47.664;9.162;2022-07-29T15:10:08;15.00;;;5.03;;
6947;SDS011;3513;47.664;9.162;2022-07-29T15:12:33;8.13;;;5.03;;
6947;SDS011;3513;47.664;9.162;2022-07-29T15:14:59;10.23;;;6.00;;
6947;SDS011;3513;47.664;9.162;2022-07-29T15:17:25;6.40;;;5.50;;
6947;SDS011;3513;47.664;9.162;2022-07-29T15:19:51;11.70;;;5.10;;
6947;SDS011;3513;47.664;9.162;2022-07-29T15:22:16;10.07;;;5.27;;
6947;SDS011;3513;47.664;9.162;2022-07-29T15:24:42;14.77;;;5.93;;
6947;SDS011;3513;47.664;9.162;2022-07-29T15:27:09;6.30;;;4.87;;
6947;SDS011;3513;47.664;9.162;2022-07-29T15:29:39;15.13;;;5.40;;
6947;SDS011;3513;47.664;9.162;2022-07-29T15:32:05;11.60;;;6.13;;
6947;SDS011;3513;47.664;9.162;2022-07-29T15:34:31;16.50;;;6.20;;
6947;SDS011;3513;47.664;9.162;2022-07-29T15:36:57;13.23;;;5.07;;
6947;SDS011;3513;47.664;9.162;2022-07-29T15:39:22;9.03;;;5.07;;
6947;SDS011;3513;47.664;9.162;2022-07-29T15:41:48;8.30;;;7.07;;
6947;SDS011;3513;47.664;9.162;2022-07-29T15:44:14;5.83;;;5.00;;
6947;SDS011;3513;47.664;9.162;2022-07-29T15:46:40;11.07;;;5.57;;
6947;SDS011;3513;47.664;9.162;2022-07-29T15:49:24;9.30;;;5.70;;
6947;SDS011;3513;47.664;9.162;2022-07-29T15:51:55;5.77;;;5.10;;
6947;SDS011;3513;47.664;9.162;2022-07-29T15:54:23;7.43;;;5.50;;
6947;SDS011;3513;47.664;9.162;2022-07-29T15:56:48;11.97;;;5.77;;
6947;SDS011;3513;47.664;9.162;2022-07-29T15:59:14;9.10;;;4.80;;
6947;SDS011;3513;47.664;9.162;2022-07-29T16:01:40;8.90;;;5.47;;
6947;SDS011;3513;47.664;9.162;2022-07-29T16:04:05;5.43;;;4.77;;
6947;SDS011;3513;47.664;9.162;2022-07-29T16:06:31;15.90;;;4.80;;
6947;SDS011;3513;47.664;9.162;2022-07-29T16:08:57;11.13;;;4.87;;
6947;SDS011;3513;47.664;9.162;2022-07-29T16:11:24;8.10;;;4.67;;
6947;SDS011;3513;47.664;9.162;2022-07-29T16:13:50;10.53;;;4.47;;
6947;SDS011;3513;47.664;9.162;2022-07-29T16:16:16;6.40;;;3.60;;
6947;SDS011;3513;47.664;9.162;2022-07-29T16:18:42;9.77;;;4.60;;
6947;SDS011;3513;47.664;9.162;2022-07-29T16:21:09;9.40;;;4.83;;
6947;SDS011;3513;47.664;9.162;2022-07-29T16:23:35;3.73;;;3.30;;
6947;SDS011;3513;47.664;9.162;2022-07-29T16:26:00;6.63;;;3.80;;
6947;SDS011;3513;47.664;9.162;2022-07-29T16:28:26;12.37;;;5.20;;
6947;SDS011;3513;47.664;9.162;2022-07-29T16:30:53;6.77;;;4.50;;
6947;SDS011;3513;47.664;9.162;2022-07-29T16:33:18;4.60;;;4.13;;
6947;SDS011;3513;47.664;9.162;2022-07-29T16:35:44;10.03;;;5.00;;